createdAt,value
2019-01-28T00:03:29.776Z,98482.87
2019-01-28T00:05:51.029Z,98456.03
2019-01-28T00:08:05.577Z,98488.81
2019-01-28T00:10:26.893Z,98449.02
2019-01-28T00:12:48.134Z,98492.37
2019-01-28T00:15:09.497Z,98463.08
2019-01-28T00:17:30.802Z,98499.89
2019-01-28T00:19:52.057Z,98462.41
2019-01-28T00:21:53.437Z,98498.63
2019-01-28T00:24:14.752Z,98497.25
2019-01-28T00:26:16.274Z,98500.93
2019-01-28T00:28:37.519Z,98469.10
2019-01-28T00:30:58.775Z,98501.39
2019-01-28T00:33:20.070Z,98503.00
2019-01-28T00:35:41.362Z,98472.02
2019-01-28T00:38:02.817Z,98500.45
2019-01-28T00:40:24.129Z,98467.17
2019-01-28T00:42:45.365Z,98499.98
2019-01-28T00:45:28.426Z,98473.16
2019-01-28T00:47:49.743Z,98501.66
2019-01-28T00:49:51.113Z,98505.32
2019-01-28T00:52:12.363Z,98511.68
2019-01-28T00:54:33.773Z,98509.11
2019-01-28T00:56:55.021Z,98512.65
2019-01-28T00:59:16.259Z,98513.23
2019-01-28T01:01:39.031Z,98521.29
2019-01-28T01:04:21.123Z,98517.97
2019-01-28T01:06:42.591Z,98521.66
2019-01-28T01:08:57.002Z,98487.06
2019-01-28T01:11:18.285Z,98486.13
2019-01-28T01:13:39.658Z,98527.19
2019-01-28T01:16:00.933Z,98529.06
2019-01-28T01:18:22.186Z,98494.50
2019-01-28T01:20:43.636Z,98496.05
2019-01-28T01:23:04.924Z,98504.11
2019-01-28T01:25:26.167Z,98544.54
2019-01-28T01:27:47.474Z,98544.00
2019-01-28T01:30:30.488Z,98550.28
2019-01-28T01:32:51.774Z,98517.20
2019-01-28T01:35:13.180Z,98519.76
2019-01-28T01:37:34.488Z,98522.08
2019-01-28T01:39:55.757Z,98567.15
2019-01-28T01:42:16.995Z,98570.55
2019-01-28T01:44:38.317Z,98534.28
2019-01-28T01:46:59.564Z,98568.23
2019-01-28T01:49:20.805Z,98574.76
2019-01-28T01:51:42.088Z,98576.37
2019-01-28T01:54:03.437Z,98545.59
2019-01-28T01:56:24.690Z,98580.45
2019-01-28T01:58:46.006Z,98580.16
2019-01-28T02:01:07.257Z,98578.44
2019-01-28T02:03:28.523Z,98578.48
2019-01-28T02:05:50.056Z,98553.76
2019-01-28T02:08:11.298Z,98554.72
2019-01-28T02:10:27.626Z,98592.91
2019-01-28T02:12:42.827Z,98554.39
2019-01-28T02:15:25.850Z,98563.86
2019-01-28T02:17:47.165Z,98562.81
2019-01-28T02:20:30.802Z,98569.98
2019-01-28T02:22:52.121Z,98569.28
2019-01-28T02:25:13.968Z,98579.46
2019-01-28T02:27:35.318Z,98615.75
2019-01-28T02:29:56.615Z,98618.52
2019-01-28T02:32:17.871Z,98585.16
2019-01-28T02:34:39.363Z,98621.06
2019-01-28T02:37:00.602Z,98582.41
2019-01-28T02:39:21.849Z,98588.06
2019-01-28T02:41:43.409Z,98628.20
2019-01-28T02:44:04.639Z,98591.82
2019-01-28T02:46:26.304Z,98641.61
2019-01-28T02:48:48.071Z,98652.71
2019-01-28T02:51:09.359Z,98619.41
2019-01-28T02:53:30.650Z,98652.16
2019-01-28T02:55:51.914Z,98610.22
2019-01-28T02:58:13.190Z,98654.16
2019-01-28T03:00:34.479Z,98625.27
2019-01-28T03:02:55.743Z,98620.25
2019-01-28T03:05:17.508Z,98615.77
2019-01-28T03:07:38.800Z,98627.81
2019-01-28T03:10:00.313Z,98663.02
2019-01-28T03:12:14.953Z,98643.51
2019-01-28T03:14:36.257Z,98650.38
2019-01-28T03:19:40.643Z,98653.46
2019-01-28T03:22:01.887Z,98651.91
2019-01-28T03:24:23.130Z,98691.16
2019-01-28T03:26:44.475Z,98657.67
2019-01-28T03:29:05.795Z,98706.08
2019-01-28T03:31:27.377Z,98671.40
2019-01-28T03:33:48.627Z,98674.81
2019-01-28T03:36:09.867Z,98718.83
2019-01-28T03:38:31.174Z,98721.70
2019-01-28T03:40:52.428Z,98682.57
2019-01-28T03:43:13.759Z,98728.44
2019-01-28T03:45:35.090Z,98728.23
2019-01-28T03:47:56.350Z,98697.58
2019-01-28T03:50:17.709Z,98733.55
2019-01-28T03:52:39.213Z,98741.56
2019-01-28T03:55:00.465Z,98745.59
2019-01-28T03:57:21.737Z,98747.46
2019-01-28T03:59:43.386Z,98755.09
2019-01-28T04:02:04.758Z,98720.09
2019-01-28T04:04:26.020Z,98757.27
2019-01-28T04:06:47.462Z,98762.29
2019-01-28T04:09:08.982Z,98765.14
2019-01-28T04:11:30.294Z,98732.57
2019-01-28T04:13:45.381Z,98768.59
2019-01-28T04:16:06.649Z,98729.35
2019-01-28T04:18:27.997Z,98778.45
2019-01-28T04:20:49.257Z,98737.27
2019-01-28T04:23:10.516Z,98780.39
2019-01-28T04:25:31.967Z,98740.31
2019-01-28T04:27:53.319Z,98785.14
2019-01-28T04:30:34.652Z,98784.59
2019-01-28T04:32:50.095Z,98786.74
2019-01-28T04:35:11.604Z,98750.67
2019-01-28T04:37:32.928Z,98749.72
2019-01-28T04:39:54.249Z,98786.93
2019-01-28T04:42:15.513Z,98750.31
2019-01-28T04:44:36.969Z,98797.04
2019-01-28T04:46:58.288Z,98747.58
2019-01-28T04:49:19.544Z,98797.97
2019-01-28T04:51:40.805Z,98800.08
2019-01-28T04:54:02.105Z,98766.55
2019-01-28T04:56:23.808Z,98807.66
2019-01-28T04:58:45.130Z,98771.15
2019-01-28T05:01:06.501Z,98769.48
2019-01-28T05:03:27.752Z,98804.51
2019-01-28T05:05:49.035Z,98783.19
2019-01-28T05:08:10.339Z,98778.08
2019-01-28T05:10:31.603Z,98809.59
2019-01-28T05:12:52.847Z,98808.66
2019-01-28T05:15:35.021Z,98822.19
2019-01-28T05:17:56.293Z,98781.86
2019-01-28T05:23:08.103Z,98816.30
2019-01-28T05:25:29.372Z,98770.86
2019-01-28T05:27:50.694Z,98813.14
2019-01-28T05:30:33.723Z,98785.31
2019-01-28T05:32:55.010Z,98815.06
2019-01-28T05:35:11.448Z,98780.36
2019-01-28T05:37:32.751Z,98820.86
2019-01-28T05:39:54.032Z,98818.02
2019-01-28T05:42:15.306Z,98782.55
2019-01-28T05:44:36.561Z,98822.11
2019-01-28T05:46:57.861Z,98816.59
2019-01-28T05:49:19.422Z,98777.06
2019-01-28T05:51:40.707Z,98818.06
2019-01-28T05:54:01.951Z,98811.69
2019-01-28T05:56:23.491Z,98809.22
2019-01-28T05:58:45.031Z,98805.71
2019-01-28T06:01:06.609Z,98763.23
2019-01-28T06:03:28.013Z,98803.02
2019-01-28T06:05:49.522Z,98770.97
2019-01-28T06:08:10.907Z,98771.95
2019-01-28T06:10:32.222Z,98815.14
2019-01-28T06:12:53.480Z,98788.12
2019-01-28T06:15:37.361Z,98820.00
2019-01-28T06:17:58.623Z,98815.88
2019-01-28T06:23:30.062Z,98819.59
2019-01-28T06:25:51.317Z,98807.92
2019-01-28T06:27:52.835Z,98817.00
2019-01-28T06:30:35.902Z,98821.39
2019-01-28T06:32:50.652Z,98784.79
2019-01-28T06:35:12.150Z,98792.60
2019-01-28T06:37:33.420Z,98788.54
2019-01-28T06:39:54.667Z,98787.05
2019-01-28T06:42:15.961Z,98828.25
2019-01-28T06:44:37.222Z,98825.95
2019-01-28T06:46:58.692Z,98788.78
2019-01-28T06:49:19.974Z,98833.94
2019-01-28T06:51:41.271Z,98797.91
2019-01-28T06:54:02.806Z,98841.28
2019-01-28T06:56:24.091Z,98805.97
2019-01-28T06:58:45.395Z,98837.66
2019-01-28T07:01:06.653Z,98839.02
2019-01-28T07:03:28.004Z,98838.05
2019-01-28T07:05:49.476Z,98809.22
2019-01-28T07:08:10.748Z,98810.20
2019-01-28T07:10:32.096Z,98847.86
2019-01-28T07:12:53.402Z,98810.26
2019-01-28T07:15:36.441Z,98853.24
2019-01-28T07:17:57.927Z,98816.53
2019-01-28T07:23:22.909Z,98830.61
2019-01-28T07:25:44.171Z,98851.04
2019-01-28T07:28:05.464Z,98821.65
2019-01-28T07:30:46.603Z,98818.44
2019-01-28T07:33:07.890Z,98812.78
2019-01-28T07:35:28.410Z,98847.98
2019-01-28T07:37:48.837Z,98856.84
2019-01-28T07:39:50.216Z,98850.80
2019-01-28T07:41:51.614Z,98860.41
2019-01-28T07:43:52.989Z,98858.86
2019-01-28T07:45:54.361Z,98856.39
2019-01-28T07:48:02.629Z,98856.05
2019-01-28T07:49:59.175Z,98864.89
2019-01-28T07:52:00.865Z,98859.19
2019-01-28T07:54:02.738Z,98862.80
2019-01-28T07:56:04.162Z,98856.63
2019-01-28T07:58:05.669Z,98865.86
2019-01-28T08:00:23.862Z,98871.58
2019-01-28T08:02:25.304Z,98865.73
2019-01-28T08:04:26.680Z,98864.70
2019-01-28T08:06:30.053Z,98861.33
2019-01-28T08:08:31.454Z,98864.78
2019-01-28T08:10:32.858Z,98863.28
2019-01-28T08:12:34.263Z,98862.82
2019-01-28T08:14:35.643Z,98864.42
2019-01-28T08:16:37.051Z,98861.47
2019-01-28T08:18:38.489Z,98868.31
2019-01-28T08:20:39.938Z,98863.52
2019-01-28T08:22:41.540Z,98860.97
2019-01-28T08:24:42.925Z,98855.81
2019-01-28T08:26:44.339Z,98859.45
2019-01-28T08:28:45.736Z,98857.77
2019-01-28T08:30:47.220Z,98861.40
2019-01-28T08:32:48.622Z,98853.47
2019-01-28T08:34:50.000Z,98849.84
2019-01-28T08:36:51.402Z,98850.95
2019-01-28T08:38:52.818Z,98848.98
2019-01-28T08:40:54.326Z,98853.66
2019-01-28T08:42:56.122Z,98846.59
2019-01-28T08:44:57.500Z,98848.31
2019-01-28T08:46:58.878Z,98854.45
2019-01-28T08:49:00.486Z,98855.30
2019-01-28T08:51:01.875Z,98858.52
2019-01-28T08:53:03.392Z,98854.50
2019-01-28T08:55:14.440Z,98849.67
2019-01-28T08:57:13.790Z,98853.05
2019-01-28T08:59:15.158Z,98851.22
2019-01-28T09:01:16.569Z,98849.21
2019-01-28T09:03:17.950Z,98851.69
2019-01-28T09:05:19.967Z,98853.10
2019-01-28T09:07:21.385Z,98849.27
2019-01-28T09:09:24.663Z,98847.81
2019-01-28T09:11:26.160Z,98848.70
2019-01-28T09:13:27.564Z,98847.67
2019-01-28T09:15:29.259Z,98848.38
2019-01-28T09:17:30.653Z,98840.64
2019-01-28T09:19:32.272Z,98838.00
2019-01-28T09:21:33.697Z,98839.97
2019-01-28T09:23:35.186Z,98839.80
2019-01-28T09:25:36.987Z,98834.98
2019-01-28T09:27:38.390Z,98835.79
2019-01-28T09:29:39.787Z,98833.44
2019-01-28T09:31:41.201Z,98840.98
2019-01-28T09:33:42.596Z,98836.64
2019-01-28T09:35:44.117Z,98837.69
2019-01-28T09:37:45.737Z,98838.05
2019-01-28T09:39:47.124Z,98840.68
2019-01-28T09:41:48.542Z,98842.66
2019-01-28T09:43:49.918Z,98844.39
2019-01-28T09:45:51.328Z,98843.09
2019-01-28T09:47:52.858Z,98848.12
2019-01-28T09:49:54.356Z,98846.17
2019-01-28T09:51:55.888Z,98845.56
2019-01-28T09:53:57.309Z,98848.66
2019-01-28T09:55:58.691Z,98854.20
2019-01-28T09:58:00.206Z,98851.96
2019-01-28T10:00:06.246Z,98848.99
2019-01-28T10:02:07.776Z,98851.59
2019-01-28T10:04:09.192Z,98849.77
2019-01-28T10:06:10.588Z,98851.09
2019-01-28T10:08:12.314Z,98848.70
2019-01-28T10:10:20.784Z,98849.45
2019-01-28T10:12:22.179Z,98851.27
2019-01-28T10:14:23.597Z,98855.60
2019-01-28T10:16:25.165Z,98849.79
2019-01-28T10:18:26.722Z,98854.34
2019-01-28T10:20:44.579Z,98850.27
2019-01-28T10:22:44.858Z,98846.98
2019-01-28T10:24:46.579Z,98856.73
2019-01-28T10:26:48.214Z,98846.55
2019-01-28T10:28:49.621Z,98849.44
2019-01-28T10:30:51.538Z,98842.95
2019-01-28T10:32:53.125Z,98837.63
2019-01-28T10:34:54.539Z,98835.36
2019-01-28T10:36:55.963Z,98841.98
2019-01-28T10:38:57.359Z,98845.29
2019-01-28T10:40:58.762Z,98844.00
2019-01-28T10:43:00.787Z,98848.77
2019-01-28T10:45:04.074Z,98844.15
2019-01-28T10:47:05.826Z,98846.20
2019-01-28T10:49:07.221Z,98846.02
2019-01-28T10:51:08.611Z,98849.41
2019-01-28T10:53:10.138Z,98842.42
2019-01-28T10:55:15.634Z,98849.58
2019-01-28T10:57:17.135Z,98853.62
2019-01-28T10:59:18.517Z,98847.92
2019-01-28T11:01:19.981Z,98838.51
2019-01-28T11:03:21.895Z,98838.72
2019-01-28T11:05:23.493Z,98836.27
2019-01-28T11:07:24.858Z,98834.95
2019-01-28T11:09:26.261Z,98834.09
2019-01-28T11:11:27.634Z,98826.71
2019-01-28T11:13:29.035Z,98824.92
2019-01-28T11:15:30.623Z,98823.44
2019-01-28T11:17:32.112Z,98828.30
2019-01-28T11:19:33.472Z,98828.77
2019-01-28T11:21:34.881Z,98822.27
2019-01-28T11:23:36.385Z,98814.44
2019-01-28T11:25:37.807Z,98825.98
2019-01-28T11:27:39.172Z,98821.33
2019-01-28T11:29:40.538Z,98815.77
2019-01-28T11:31:42.020Z,98826.53
2019-01-28T11:33:44.687Z,98814.77
2019-01-28T11:35:46.824Z,98820.31
2019-01-28T11:37:48.305Z,98816.08
2019-01-28T11:39:49.759Z,98824.40
2019-01-28T11:41:51.209Z,98820.43
2019-01-28T11:43:52.762Z,98820.70
2019-01-28T11:45:57.991Z,98814.07
2019-01-28T11:47:59.603Z,98818.78
2019-01-28T11:50:01.027Z,98815.84
2019-01-28T11:52:02.423Z,98820.15
2019-01-28T11:54:04.630Z,98822.45
2019-01-28T11:56:06.035Z,98818.22
2019-01-28T11:58:07.618Z,98814.84
2019-01-28T12:00:26.108Z,98817.95
2019-01-28T12:02:34.248Z,98820.84
2019-01-28T12:04:30.793Z,98817.01
2019-01-28T12:06:32.297Z,98815.08
2019-01-28T12:08:34.004Z,98819.94
2019-01-28T12:10:35.476Z,98827.66
2019-01-28T12:12:36.887Z,98828.33
2019-01-28T12:14:38.271Z,98830.34
2019-01-28T12:16:39.648Z,98829.20
2019-01-28T12:18:41.068Z,98827.44
2019-01-28T12:20:42.573Z,98820.42
2019-01-28T12:22:44.058Z,98823.74
2019-01-28T12:24:45.449Z,98820.00
2019-01-28T12:26:46.921Z,98821.95
2019-01-28T12:28:48.404Z,98822.84
2019-01-28T12:30:50.109Z,98822.25
2019-01-28T12:32:51.517Z,98821.74
2019-01-28T12:34:52.901Z,98823.59
2019-01-28T12:36:54.298Z,98819.84
2019-01-28T12:38:55.711Z,98815.70
2019-01-28T12:40:57.086Z,98821.11
2019-01-28T12:42:58.509Z,98818.73
2019-01-28T12:44:59.892Z,98820.52
2019-01-28T12:47:01.260Z,98821.68
2019-01-28T12:49:03.463Z,98820.48
2019-01-28T12:51:05.096Z,98821.75
2019-01-28T12:53:06.521Z,98819.28
2019-01-28T12:55:14.924Z,98820.02
2019-01-28T12:57:16.369Z,98824.25
2019-01-28T12:59:17.857Z,98825.66
2019-01-28T13:01:19.280Z,98826.22
2019-01-28T13:03:20.746Z,98826.84
2019-01-28T13:05:24.220Z,98829.41
2019-01-28T13:07:25.798Z,98822.58
2019-01-28T13:09:27.175Z,98825.89
2019-01-28T13:11:28.595Z,98826.48
2019-01-28T13:13:29.968Z,98823.27
2019-01-28T13:15:33.304Z,98810.53
2019-01-28T13:17:34.690Z,98813.21
2019-01-28T13:19:36.080Z,98816.13
2019-01-28T13:21:37.522Z,98816.43
2019-01-28T13:23:38.956Z,98815.06
2019-01-28T13:25:40.361Z,98813.05
2019-01-28T13:27:41.827Z,98814.36
2019-01-28T13:29:43.272Z,98815.17
2019-01-28T13:31:44.746Z,98816.75
2019-01-28T13:33:46.121Z,98819.13
2019-01-28T13:35:49.422Z,98815.52
2019-01-28T13:37:50.806Z,98815.16
2019-01-28T13:39:54.087Z,98817.20
2019-01-28T13:41:55.447Z,98812.66
2019-01-28T13:43:56.864Z,98816.77
2019-01-28T13:45:58.241Z,98816.02
2019-01-28T13:47:59.813Z,98810.95
2019-01-28T13:50:01.221Z,98812.48
2019-01-28T13:52:03.027Z,98811.61
2019-01-28T13:54:04.505Z,98809.52
2019-01-28T13:56:05.916Z,98815.13
2019-01-28T13:58:07.507Z,98811.58
2019-01-28T14:00:17.540Z,98811.80
2019-01-28T14:02:18.966Z,98817.11
2019-01-28T14:04:20.333Z,98814.05
2019-01-28T14:06:21.711Z,98827.58
2019-01-28T14:08:23.154Z,98833.17
2019-01-28T14:10:25.356Z,98841.17
2019-01-28T14:12:26.831Z,98844.67
2019-01-28T14:14:28.301Z,98842.41
2019-01-28T14:16:29.720Z,98843.47
2019-01-28T14:18:31.103Z,98850.56
2019-01-28T14:20:35.731Z,98846.53
2019-01-28T14:22:38.022Z,98845.84
2019-01-28T14:24:40.465Z,98849.45
2019-01-28T14:26:41.829Z,98847.83
2019-01-28T14:28:43.199Z,98851.55
2019-01-28T14:30:45.131Z,98852.36
2019-01-28T14:32:46.604Z,98857.73
2019-01-28T14:34:48.019Z,98860.73
2019-01-28T14:36:49.610Z,98858.80
2019-01-28T14:38:51.326Z,98857.41
2019-01-28T14:40:52.733Z,98863.86
2019-01-28T14:42:54.146Z,98867.83
2019-01-28T14:44:55.536Z,98864.96
2019-01-28T14:46:56.896Z,98861.89
2019-01-28T14:49:00.117Z,98860.80
2019-01-28T14:51:01.511Z,98865.63
2019-01-28T14:53:03.299Z,98859.38
2019-01-28T14:55:06.124Z,98863.46
2019-01-28T14:57:07.537Z,98865.52
2019-01-28T14:59:08.980Z,98870.05
2019-01-28T15:01:10.381Z,98862.34
2019-01-28T15:03:11.900Z,98861.94
2019-01-28T15:05:13.520Z,98866.84
2019-01-28T15:07:14.912Z,98866.43
2019-01-28T15:09:16.435Z,98867.72
2019-01-28T15:11:17.894Z,98867.34
2019-01-28T15:13:19.766Z,98862.94
2019-01-28T15:15:29.173Z,98867.25
2019-01-28T15:17:30.656Z,98868.44
2019-01-28T15:19:32.178Z,98867.28
2019-01-28T15:21:33.723Z,98873.23
2019-01-28T15:23:35.298Z,98867.03
2019-01-28T15:25:37.049Z,98873.25
2019-01-28T15:27:38.868Z,98878.03
2019-01-28T15:29:41.050Z,98884.38
2019-01-28T15:31:42.708Z,98883.42
2019-01-28T15:33:44.694Z,98888.20
2019-01-28T15:35:47.794Z,98885.25
2019-01-28T15:37:51.859Z,98886.66
2019-01-28T15:40:05.312Z,98890.88
2019-01-28T15:42:08.025Z,98891.88
2019-01-28T15:44:18.546Z,98889.52
2019-01-28T15:56:18.959Z,98887.23
2019-01-28T15:58:20.599Z,98888.86
2019-01-28T16:00:29.407Z,98880.13
2019-01-28T16:02:31.118Z,98889.01
2019-01-28T16:04:32.692Z,98890.58
2019-01-28T16:06:34.064Z,98889.81
2019-01-28T16:08:35.505Z,98887.14
2019-01-28T16:10:37.035Z,98883.42
2019-01-28T16:12:38.424Z,98892.64
2019-01-28T16:14:39.804Z,98891.98
2019-01-28T16:16:41.262Z,98893.59
2019-01-28T16:18:42.644Z,98894.87
2019-01-28T16:20:44.036Z,98900.24
2019-01-28T16:22:46.281Z,98898.25
2019-01-28T16:24:47.661Z,98905.50
2019-01-28T16:26:49.039Z,98907.79
2019-01-28T16:28:50.460Z,98902.91
2019-01-28T16:30:51.845Z,98905.11
2019-01-28T16:32:53.539Z,98908.06
2019-01-28T16:34:54.989Z,98906.57
2019-01-28T16:36:56.652Z,98910.33
2019-01-28T16:38:58.121Z,98909.53
2019-01-28T16:40:59.533Z,98914.44
2019-01-28T16:43:00.919Z,98908.00
2019-01-28T16:45:03.218Z,98909.92
2019-01-28T16:47:04.748Z,98911.41
2019-01-28T16:49:06.115Z,98911.16
2019-01-28T16:51:07.497Z,98916.02
2019-01-28T16:53:09.032Z,98916.94
2019-01-28T16:55:13.131Z,98914.04
2019-01-28T16:57:14.534Z,98915.80
2019-01-28T16:59:16.187Z,98921.06
2019-01-28T17:01:17.584Z,98916.06
2019-01-28T17:03:18.964Z,98915.74
2019-01-28T17:05:20.707Z,98922.01
2019-01-28T17:07:22.111Z,98922.68
2019-01-28T17:09:23.494Z,98920.52
2019-01-28T17:11:24.949Z,98926.37
2019-01-28T17:13:26.440Z,98929.70
2019-01-28T17:15:27.915Z,98927.59
2019-01-28T17:17:29.367Z,98930.97
2019-01-28T17:19:30.840Z,98931.95
2019-01-28T17:21:32.285Z,98935.02
2019-01-28T17:23:33.724Z,98934.89
2019-01-28T17:25:39.598Z,98933.34
2019-01-28T17:27:40.972Z,98938.28
2019-01-28T17:29:42.613Z,98932.10
2019-01-28T17:31:43.987Z,98942.39
2019-01-28T17:33:45.416Z,98941.75
2019-01-28T17:35:46.853Z,98939.17
2019-01-28T17:37:48.244Z,98942.93
2019-01-28T17:39:49.629Z,98938.05
2019-01-28T17:41:51.091Z,98942.60
2019-01-28T17:43:52.502Z,98942.16
2019-01-28T17:45:53.892Z,98942.75
2019-01-28T17:47:55.906Z,98948.17
2019-01-28T17:50:01.456Z,98943.05
2019-01-28T17:52:00.583Z,98948.34
2019-01-28T17:54:02.016Z,98944.78
2019-01-28T17:56:03.796Z,98948.16
2019-01-28T17:58:05.580Z,98954.17
2019-01-28T18:00:20.519Z,98951.17
2019-01-28T18:02:21.903Z,98954.30
2019-01-28T18:04:23.293Z,98952.00
2019-01-28T18:06:24.825Z,98955.56
2019-01-28T18:08:26.575Z,98956.12
2019-01-28T18:10:28.038Z,98958.80
2019-01-28T18:12:29.406Z,98957.30
2019-01-28T18:14:30.840Z,98960.78
2019-01-28T18:16:32.209Z,98965.29
2019-01-28T18:18:33.609Z,98969.23
2019-01-28T18:20:35.335Z,98963.41
2019-01-28T18:22:41.365Z,98969.32
2019-01-28T18:24:42.749Z,98967.31
2019-01-28T18:26:44.150Z,98969.55
2019-01-28T18:28:45.579Z,98968.42
2019-01-28T18:30:48.856Z,98969.78
2019-01-28T18:32:50.229Z,98968.25
2019-01-28T18:34:51.669Z,98967.81
2019-01-28T18:36:53.062Z,98973.00
2019-01-28T18:38:56.058Z,98977.09
2019-01-28T18:40:57.591Z,98973.66
2019-01-28T18:42:58.959Z,98972.58
2019-01-28T18:45:00.338Z,98971.43
2019-01-28T18:47:01.757Z,98977.72
2019-01-28T18:49:03.989Z,98973.44
2019-01-28T18:51:05.471Z,98976.03
2019-01-28T18:53:06.960Z,98978.30
2019-01-28T18:55:12.010Z,98979.58
2019-01-28T18:57:13.389Z,98981.03
2019-01-28T18:59:14.765Z,98986.83
2019-01-28T19:01:16.425Z,98987.70
2019-01-28T19:03:17.794Z,98991.86
2019-01-28T19:05:36.662Z,98990.91
2019-01-28T19:07:40.148Z,98996.23
2019-01-28T19:09:41.520Z,98997.67
2019-01-28T19:11:53.554Z,99000.41
2019-01-28T19:14:11.941Z,99005.75
2019-01-28T19:16:15.221Z,99007.31
2019-01-28T19:18:18.568Z,99014.84
2019-01-28T19:20:27.888Z,99016.55
2019-01-28T19:22:29.355Z,99016.67
2019-01-28T19:24:30.815Z,99019.95
2019-01-28T19:26:32.201Z,99026.78
2019-01-28T19:28:33.671Z,99032.49
2019-01-28T19:30:35.142Z,99038.86
2019-01-28T19:32:36.479Z,99038.75
2019-01-28T19:34:37.923Z,99039.30
2019-01-28T19:36:39.297Z,99041.16
2019-01-28T19:38:40.655Z,99041.67
2019-01-28T19:40:42.114Z,99039.60
2019-01-28T19:42:43.490Z,99037.95
2019-01-28T19:44:44.879Z,99043.27
2019-01-28T19:46:46.345Z,99046.85
2019-01-28T19:48:47.704Z,99050.81
2019-01-28T19:50:49.320Z,99049.25
2019-01-28T19:52:50.666Z,99050.52
2019-01-28T19:54:52.084Z,99056.55
2019-01-28T19:56:53.474Z,99054.09
2019-01-28T19:58:54.950Z,99053.95
2019-01-28T20:00:56.326Z,99062.70
2019-01-28T20:02:58.289Z,99070.32
2019-01-28T20:04:59.831Z,99066.84
2019-01-28T20:07:01.203Z,99072.33
2019-01-28T20:09:06.074Z,99078.20
2019-01-28T20:11:07.516Z,99082.45
2019-01-28T20:13:08.896Z,99075.73
2019-01-28T20:15:17.241Z,99085.16
2019-01-28T20:17:18.682Z,99083.86
2019-01-28T20:19:20.296Z,99084.53
2019-01-28T20:21:23.891Z,99086.47
2019-01-28T20:23:26.916Z,99088.74
2019-01-28T20:25:28.809Z,99091.22
2019-01-28T20:27:30.295Z,99092.94
2019-01-28T20:29:31.674Z,99093.30
2019-01-28T20:31:33.105Z,99091.19
2019-01-28T20:33:34.505Z,99095.77
2019-01-28T20:35:37.203Z,99101.84
2019-01-28T20:37:38.764Z,99108.27
2019-01-28T20:39:40.165Z,99106.38
2019-01-28T20:41:41.557Z,99109.56
2019-01-28T20:43:43.021Z,99118.35
2019-01-28T20:45:45.118Z,99120.77
2019-01-28T20:47:46.967Z,99119.55
2019-01-28T20:49:48.549Z,99121.04
2019-01-28T20:51:49.995Z,99122.46
2019-01-28T20:53:51.466Z,99123.10
2019-01-28T20:55:53.097Z,99123.84
2019-01-28T20:57:54.654Z,99134.01
2019-01-28T20:59:56.109Z,99136.61
2019-01-28T21:01:57.539Z,99135.39
2019-01-28T21:03:58.919Z,99144.91
2019-01-28T21:06:00.305Z,99149.25
2019-01-28T21:08:01.734Z,99153.64
2019-01-28T21:10:08.725Z,99156.92
2019-01-28T21:12:10.094Z,99165.66
2019-01-28T21:14:11.565Z,99162.69
2019-01-28T21:16:12.953Z,99164.36
2019-01-28T21:18:14.444Z,99170.34
2019-01-28T21:20:18.513Z,99171.98
2019-01-28T21:22:19.913Z,99174.09
2019-01-28T21:24:22.542Z,99176.23
2019-01-28T21:26:24.028Z,99178.48
2019-01-28T21:28:25.427Z,99178.93
2019-01-28T21:30:33.801Z,99182.06
2019-01-28T21:32:35.233Z,99194.39
2019-01-28T21:34:36.628Z,99195.90
2019-01-28T21:36:39.910Z,99199.06
2019-01-28T21:38:43.246Z,99202.60
2019-01-28T21:40:44.859Z,99205.71
2019-01-28T21:42:46.313Z,99201.33
2019-01-28T21:44:47.687Z,99205.38
2019-01-28T21:46:49.114Z,99206.69
2019-01-28T21:48:50.830Z,99207.90
2019-01-28T21:50:52.255Z,99212.95
2019-01-28T21:52:53.847Z,99209.94
2019-01-28T21:54:55.222Z,99215.14
2019-01-28T21:56:56.701Z,99215.95
2019-01-28T21:58:58.090Z,99218.94
2019-01-28T22:00:59.471Z,99218.27
2019-01-28T22:03:00.929Z,99223.70
2019-01-28T22:05:05.011Z,99223.02
2019-01-28T22:07:06.386Z,99221.55
2019-01-28T22:09:07.913Z,99224.75
2019-01-28T22:11:09.311Z,99220.94
2019-01-28T22:13:10.694Z,99223.67
2019-01-28T22:15:16.735Z,99227.84
2019-01-28T22:17:18.128Z,99231.30
2019-01-28T22:19:19.558Z,99232.69
2019-01-28T22:21:20.950Z,99237.52
2019-01-28T22:23:22.330Z,99233.88
2019-01-28T22:25:23.834Z,99236.45
2019-01-28T22:27:25.217Z,99238.12
2019-01-28T22:29:26.602Z,99238.37
2019-01-28T22:31:28.049Z,99244.16
2019-01-28T22:33:29.420Z,99253.22
2019-01-28T22:35:30.902Z,99250.69
2019-01-28T22:37:32.345Z,99250.94
2019-01-28T22:39:33.726Z,99254.45
2019-01-28T22:41:35.256Z,99255.52
2019-01-28T22:43:36.739Z,99256.73
2019-01-28T22:45:38.123Z,99258.12
2019-01-28T22:47:39.499Z,99264.72
2019-01-28T22:49:40.934Z,99263.23
2019-01-28T22:51:42.419Z,99272.26
2019-01-28T22:53:43.817Z,99273.20
2019-01-28T22:55:45.251Z,99272.23
2019-01-28T22:57:46.683Z,99275.11
2019-01-28T22:59:48.135Z,99277.00
2019-01-28T23:01:49.583Z,99283.01
2019-01-28T23:03:51.071Z,99281.00
2019-01-28T23:05:52.563Z,99285.11
2019-01-28T23:07:53.977Z,99284.92
2019-01-28T23:09:55.354Z,99286.39
2019-01-28T23:11:56.749Z,99283.32
2019-01-28T23:13:58.327Z,99291.17
2019-01-28T23:15:59.715Z,99291.35
2019-01-28T23:18:01.194Z,99297.15
2019-01-28T23:20:06.505Z,99299.30
2019-01-28T23:22:16.041Z,99303.56
2019-01-28T23:24:11.312Z,99304.56
2019-01-28T23:26:12.797Z,99301.72
2019-01-28T23:28:14.237Z,99305.45
2019-01-28T23:30:15.716Z,99308.59
2019-01-28T23:32:17.086Z,99311.26
2019-01-28T23:34:18.532Z,99306.64
2019-01-28T23:36:19.941Z,99313.69
2019-01-28T23:38:21.325Z,99316.94
2019-01-28T23:40:22.831Z,99319.07
2019-01-28T23:42:24.214Z,99321.11
2019-01-28T23:44:25.576Z,99320.81
2019-01-28T23:46:26.996Z,99324.20
2019-01-28T23:48:28.390Z,99328.07
2019-01-28T23:50:29.767Z,99327.25
2019-01-28T23:52:31.206Z,99330.02
2019-01-28T23:54:32.645Z,99332.30
2019-01-28T23:56:33.997Z,99338.98
2019-01-28T23:58:35.379Z,99343.44
